Time;durP1;ratioP1;P1;durP2;ratioP2;P2;SDS_P1;SDS_P2;PMS_P1;PMS_P2;Temp;Humidity;BMP_temperature;BMP_pressure;BME280_temperature;BME280_humidity;BME280_pressure;Samples;Min_cycle;Max_cycle;Signal;HPM_P1;HPM_P2
2023/10/05 00:04:54;;;;;;;1.50;0.60;;;13.50;65.00;;;;;;2322763;53;21552;-67
2023/10/05 00:07:23;;;;;;;2.58;0.88;;;13.50;65.00;;;;;;2358687;53;20974;-71
2023/10/05 00:09:50;;;;;;;1.23;0.50;;;13.50;65.10;;;;;;2364026;54;20942;-68
2023/10/05 00:12:22;;;;;;;2.87;0.70;;;13.50;65.10;;;;;;2365369;53;21474;-70
2023/10/05 00:15:02;;;;;;;2.67;0.88;;;13.50;65.00;;;;;;2346578;53;22018;-70
2023/10/05 00:17:32;;;;;;;1.42;0.50;;;13.50;65.00;;;;;;2341048;53;20932;-68
2023/10/05 00:19:58;;;;;;;2.87;0.70;;;13.50;65.00;;;;;;2348046;53;21486;-66
2023/10/05 00:22:28;;;;;;;1.50;0.60;;;13.50;65.10;;;;;;2599971;52;20940;-69
2023/10/05 00:24:56;;;;;;;3.30;0.65;;;13.40;64.90;;;;;;2340870;54;21869;-68
2023/10/05 00:27:22;;;;;;;2.37;0.70;;;13.40;65.00;;;;;;2341236;54;21017;-68
2023/10/05 00:29:56;;;;;;;1.58;0.55;;;13.40;65.00;;;;;;2589218;52;21831;-70
2023/10/05 00:32:25;;;;;;;5.25;1.20;;;13.40;65.00;;;;;;2598979;52;20910;-68
2023/10/05 00:35:08;;;;;;;1.73;0.73;;;13.40;65.10;;;;;;2621148;52;20926;-72
2023/10/05 00:37:35;;;;;;;1.67;0.60;;;13.40;65.20;;;;;;2621034;52;21390;-69
2023/10/05 00:40:04;;;;;;;3.03;1.10;;;13.40;65.30;;;;;;2620721;52;20954;-71
2023/10/05 00:42:30;;;;;;;1.92;0.85;;;13.40;65.30;;;;;;2367929;53;20949;-67
2023/10/05 00:45:01;;;;;;;2.15;0.80;;;13.30;65.20;;;;;;2368438;53;22130;-66
2023/10/05 00:47:29;;;;;;;2.00;0.80;;;13.40;65.40;;;;;;2620748;52;20942;-69
2023/10/05 00:49:58;;;;;;;3.97;1.05;;;13.40;65.40;;;;;;2613511;52;20974;-72
2023/10/05 00:52:24;;;;;;;2.53;0.90;;;13.40;65.40;;;;;;2350961;53;20923;-70
2023/10/05 00:54:56;;;;;;;1.65;0.62;;;13.30;65.30;;;;;;2619866;52;20990;-69
2023/10/05 00:57:24;;;;;;;2.55;0.70;;;13.40;65.30;;;;;;2621244;52;20950;-69
2023/10/05 01:07:00;;;;;;;2.40;0.70;;;13.20;65.20;;;;;;2367458;53;21376;-68
2023/10/05 01:13:33;;;;;;;2.10;0.70;;;13.30;65.30;;;;;;2587876;52;20972;-71
2023/10/05 01:16:15;;;;;;;2.17;0.73;;;13.30;65.20;;;;;;2340485;53;21451;-69
2023/10/05 01:18:43;;;;;;;1.92;0.80;;;13.20;65.20;;;;;;2340165;53;21158;-70
2023/10/05 01:21:10;;;;;;;1.60;0.60;;;13.20;65.20;;;;;;2586089;52;21021;-68
2023/10/05 01:23:40;;;;;;;3.47;1.10;;;13.20;65.30;;;;;;2585757;52;21092;-71
2023/10/05 01:26:12;;;;;;;2.10;0.77;;;13.20;65.30;;;;;;2340531;53;20996;-70
2023/10/05 01:28:41;;;;;;;2.05;0.70;;;13.20;65.30;;;;;;2586363;52;21367;-67
2023/10/05 01:31:16;;;;;;;2.28;0.62;;;13.10;65.20;;;;;;2340645;53;21952;-70
2023/10/05 01:33:43;;;;;;;3.17;0.70;;;13.10;65.30;;;;;;2584661;52;20960;-68
2023/10/05 01:36:11;;;;;;;3.58;0.85;;;13.10;65.30;;;;;;2340824;53;21301;-70
2023/10/05 01:38:40;;;;;;;2.15;0.70;;;13.10;65.30;;;;;;2348370;53;20965;-70
2023/10/05 01:41:09;;;;;;;2.90;0.88;;;13.10;65.20;;;;;;2351087;53;21051;-69
2023/10/05 01:43:42;;;;;;;2.65;0.90;;;13.10;65.20;;;;;;2586835;52;21163;-73
2023/10/05 01:46:11;;;;;;;2.53;0.75;;;13.10;65.40;;;;;;2341017;53;20953;-69
2023/10/05 01:48:41;;;;;;;2.37;0.80;;;13.10;65.50;;;;;;2340823;53;20997;-65
2023/10/05 01:51:14;;;;;;;2.40;1.02;;;13.10;65.40;;;;;;2587670;52;21063;-69
2023/10/05 01:53:42;;;;;;;2.95;0.98;;;13.00;65.30;;;;;;2340389;53;21036;-67
2023/10/05 01:56:20;;;;;;;1.98;0.70;;;13.00;65.20;;;;;;2340292;53;20948;-69
2023/10/05 01:58:54;;;;;;;1.83;0.70;;;13.00;65.10;;;;;;2339000;53;21011;-70
2023/10/05 02:01:28;;;;;;;2.80;1.08;;;13.00;65.40;;;;;;2591914;52;20944;-70
2023/10/05 02:03:57;;;;;;;2.40;0.90;;;13.00;65.40;;;;;;2560357;52;21016;-68
2023/10/05 02:06:28;;;;;;;3.17;0.88;;;12.90;65.40;;;;;;2351673;53;21172;-69
2023/10/05 02:08:54;;;;;;;1.67;0.60;;;12.90;65.40;;;;;;2357178;53;21362;-69
2023/10/05 02:11:24;;;;;;;1.87;0.70;;;12.90;65.50;;;;;;2349632;53;21013;-69
2023/10/05 02:13:52;;;;;;;1.90;0.75;;;12.90;65.50;;;;;;2340477;53;21877;-66
2023/10/05 02:16:20;;;;;;;2.17;0.77;;;12.90;65.50;;;;;;2340865;53;21375;-66
2023/10/05 02:18:48;;;;;;;3.20;0.80;;;12.90;65.50;;;;;;2339791;53;20948;-69
2023/10/05 02:21:18;;;;;;;1.77;0.68;;;12.90;65.50;;;;;;2341026;53;21012;-68
2023/10/05 02:23:47;;;;;;;2.92;0.98;;;12.90;65.70;;;;;;2362403;53;20957;-68
2023/10/05 02:26:24;;;;;;;2.08;0.70;;;12.90;65.70;;;;;;2604182;52;20965;-68
2023/10/05 02:28:51;;;;;;;1.58;0.75;;;12.90;65.70;;;;;;2334377;53;20944;-67
2023/10/05 02:31:20;;;;;;;2.15;0.82;;;12.90;65.70;;;;;;2602580;52;21384;-70
2023/10/05 02:33:46;;;;;;;2.15;0.93;;;12.80;65.70;;;;;;2598590;52;20962;-68
2023/10/05 02:36:26;;;;;;;2.12;0.77;;;12.80;65.70;;;;;;2620858;52;21467;-68
2023/10/05 02:38:56;;;;;;;2.33;0.98;;;12.80;65.80;;;;;;2619538;52;20943;-67
2023/10/05 02:41:37;;;;;;;2.20;0.70;;;12.90;65.90;;;;;;2369310;53;20910;-68
2023/10/05 02:44:09;;;;;;;2.10;0.88;;;12.80;65.80;;;;;;2341475;53;21881;-68
2023/10/05 02:46:36;;;;;;;2.22;0.70;;;12.90;65.90;;;;;;2340724;53;21037;-72
2023/10/05 02:49:02;;;;;;;2.47;0.82;;;12.90;66.00;;;;;;2600905;52;20980;-71
2023/10/05 02:51:29;;;;;;;2.03;0.82;;;12.90;66.00;;;;;;2592589;52;21678;-69
2023/10/05 02:54:04;;;;;;;2.05;0.70;;;12.90;66.10;;;;;;2586716;52;21001;-70
2023/10/05 02:56:34;;;;;;;1.70;0.60;;;12.90;66.10;;;;;;2336878;54;21422;-66
2023/10/05 02:59:02;;;;;;;3.67;0.70;;;12.70;65.80;;;;;;2586440;52;21745;-70
2023/10/05 03:01:32;;;;;;;2.42;0.70;;;12.90;66.00;;;;;;2587724;52;20970;-70
2023/10/05 03:04:03;;;;;;;2.10;0.75;;;12.90;66.00;;;;;;2586891;52;20920;-71
2023/10/05 03:06:33;;;;;;;1.23;0.60;;;12.90;66.00;;;;;;2341820;53;21376;-68
2023/10/05 03:09:07;;;;;;;2.30;0.62;;;12.80;65.90;;;;;;2613254;52;20934;-68
2023/10/05 03:11:40;;;;;;;2.50;0.77;;;12.90;66.10;;;;;;2341787;53;20996;-71
2023/10/05 03:14:09;;;;;;;1.48;0.73;;;12.90;66.00;;;;;;2587203;52;20921;-70
2023/10/05 03:16:43;;;;;;;2.72;0.80;;;12.90;66.10;;;;;;2621617;52;20914;-70
2023/10/05 03:19:22;;;;;;;1.87;0.73;;;12.90;66.20;;;;;;2592002;52;21201;-67
2023/10/05 03:21:57;;;;;;;3.15;1.00;;;12.90;66.20;;;;;;2349447;53;20937;-69
2023/10/05 03:24:25;;;;;;;1.80;0.75;;;12.90;66.20;;;;;;2588337;52;21481;-70
2023/10/05 03:26:52;;;;;;;2.00;0.80;;;12.90;66.20;;;;;;2586043;52;21066;-70
2023/10/05 03:29:21;;;;;;;3.40;1.10;;;12.90;66.20;;;;;;2605805;52;21425;-69
2023/10/05 03:31:55;;;;;;;2.70;1.10;;;12.90;66.20;;;;;;2340896;53;21794;-68
2023/10/05 03:34:26;;;;;;;2.70;1.08;;;12.90;66.20;;;;;;2587852;52;20972;-71
2023/10/05 03:36:55;;;;;;;3.37;1.30;;;12.90;66.30;;;;;;2341206;53;21824;-73
2023/10/05 03:39:28;;;;;;;3.12;1.10;;;12.90;66.40;;;;;;2341097;53;20921;-68
2023/10/05 03:41:54;;;;;;;1.85;0.93;;;12.90;66.50;;;;;;2339685;53;21028;-69
2023/10/05 03:44:21;;;;;;;2.75;1.10;;;12.90;66.50;;;;;;2341817;53;21406;-71
2023/10/05 03:46:49;;;;;;;4.70;1.30;;;13.00;66.70;;;;;;2360372;53;20921;-68
2023/10/05 03:49:21;;;;;;;3.22;1.20;;;12.90;66.70;;;;;;2587623;52;22028;-70
2023/10/05 03:51:51;;;;;;;2.53;0.93;;;12.90;66.80;;;;;;2605509;52;20996;-68
2023/10/05 03:54:21;;;;;;;2.78;0.98;;;13.00;66.90;;;;;;2341896;53;20925;-66
2023/10/05 03:57:04;;;;;;;3.47;1.00;;;13.00;66.90;;;;;;2588439;52;21004;-69
2023/10/05 03:59:33;;;;;;;2.30;0.80;;;13.10;67.00;;;;;;2602587;52;20897;-72
2023/10/05 04:02:04;;;;;;;3.05;1.15;;;13.10;66.90;;;;;;2340438;53;21033;-68
2023/10/05 04:04:30;;;;;;;3.25;1.00;;;13.10;66.90;;;;;;2341263;53;21024;-68
2023/10/05 04:06:58;;;;;;;3.28;1.20;;;13.00;66.80;;;;;;2346768;53;20999;-68
2023/10/05 04:09:28;;;;;;;2.62;1.00;;;13.10;66.90;;;;;;2602355;52;21338;-67
2023/10/05 04:11:55;;;;;;;3.50;0.90;;;13.20;67.10;;;;;;2345348;53;20909;-68
2023/10/05 04:14:23;;;;;;;2.47;1.00;;;13.10;67.00;;;;;;2354467;54;20952;-72
2023/10/05 04:16:50;;;;;;;3.70;0.88;;;13.10;67.00;;;;;;2586150;52;20913;-70
2023/10/05 04:19:17;;;;;;;2.60;1.20;;;13.20;67.10;;;;;;2587910;52;21024;-69
2023/10/05 04:21:47;;;;;;;2.78;1.08;;;13.20;67.10;;;;;;2340476;53;20938;-66
2023/10/05 04:24:16;;;;;;;3.33;1.00;;;13.20;67.10;;;;;;2341321;53;21690;-70
2023/10/05 04:26:47;;;;;;;2.83;0.90;;;13.20;67.10;;;;;;2586995;52;21405;-68
2023/10/05 04:29:16;;;;;;;2.42;1.00;;;13.20;67.10;;;;;;2336950;54;20949;-69
2023/10/05 04:31:48;;;;;;;2.92;1.00;;;13.30;67.20;;;;;;2614208;52;20926;-68
2023/10/05 04:34:18;;;;;;;2.97;1.20;;;13.20;67.10;;;;;;2600715;52;21008;-69
2023/10/05 04:36:46;;;;;;;2.15;0.90;;;13.30;67.20;;;;;;2587057;52;21668;-70
2023/10/05 04:39:21;;;;;;;3.30;0.93;;;13.30;67.20;;;;;;2572204;53;21036;-69
2023/10/05 04:41:50;;;;;;;2.12;0.80;;;13.30;67.20;;;;;;2615976;52;21029;-68
2023/10/05 04:44:16;;;;;;;2.65;0.90;;;13.30;67.20;;;;;;2369517;53;20984;-69
2023/10/05 04:46:48;;;;;;;2.30;0.90;;;13.30;67.20;;;;;;2368440;53;21034;-69
2023/10/05 04:49:19;;;;;;;2.00;0.80;;;13.40;67.30;;;;;;2370048;53;20917;-68
2023/10/05 04:51:45;;;;;;;3.03;0.88;;;13.40;67.20;;;;;;2615954;52;20969;-71
2023/10/05 04:54:12;;;;;;;4.50;1.00;;;13.30;67.00;;;;;;2369328;53;20974;-69
2023/10/05 04:59:59;;;;;;;;;;;13.40;67.00;;;;;;2622777;52;21597;-70
2023/10/05 05:02:58;;;;;;;1.92;0.80;;;13.40;66.10;;;;;;2363525;53;20056;-71
2023/10/05 05:08:58;;;;;;;2.33;0.93;;;13.40;67.70;;;;;;2369144;53;20926;-68
2023/10/05 05:11:25;;;;;;;2.67;1.10;;;13.40;67.10;;;;;;2370123;53;21859;-68
2023/10/05 05:13:51;;;;;;;2.80;1.08;;;13.50;67.30;;;;;;2619447;52;21060;-72
2023/10/05 05:16:19;;;;;;;3.92;1.27;;;13.40;67.20;;;;;;2367838;53;20985;-69
2023/10/05 05:18:45;;;;;;;2.40;0.98;;;13.40;67.30;;;;;;2592579;52;21009;-68
2023/10/05 05:21:12;;;;;;;2.20;1.00;;;13.40;67.30;;;;;;2584798;52;21608;-68
2023/10/05 05:23:42;;;;;;;2.30;1.00;;;13.40;67.20;;;;;;2346766;53;21040;-68
2023/10/05 05:26:10;;;;;;;2.08;0.90;;;13.40;67.10;;;;;;2600422;52;21447;-68
2023/10/05 05:28:43;;;;;;;3.22;1.10;;;13.40;67.10;;;;;;2587686;52;20961;-67
2023/10/05 05:31:16;;;;;;;2.00;0.90;;;13.40;67.20;;;;;;2341362;53;20972;-67
2023/10/05 05:33:44;;;;;;;3.10;1.23;;;13.40;67.20;;;;;;2340277;53;20921;-66
2023/10/05 05:36:11;;;;;;;2.60;1.20;;;13.40;67.20;;;;;;2586764;52;20941;-65
2023/10/05 05:38:41;;;;;;;2.78;1.12;;;13.50;67.50;;;;;;2342279;53;21778;-66
2023/10/05 05:41:20;;;;;;;2.40;0.98;;;13.50;67.50;;;;;;2340953;53;20943;-67
2023/10/05 05:43:53;;;;;;;3.00;0.90;;;13.50;67.30;;;;;;2553544;53;21021;-66
2023/10/05 05:46:19;;;;;;;4.35;1.05;;;13.50;67.30;;;;;;2592855;52;20986;-68
2023/10/05 05:48:51;;;;;;;2.80;1.00;;;13.50;67.20;;;;;;2346330;53;20976;-66
2023/10/05 05:51:17;;;;;;;2.67;1.00;;;13.50;67.10;;;;;;2599862;52;20982;-66
2023/10/05 05:53:44;;;;;;;2.22;0.88;;;13.50;67.00;;;;;;2587748;52;21717;-66
2023/10/05 05:56:19;;;;;;;3.53;1.25;;;13.40;67.00;;;;;;2342164;53;21031;-66
2023/10/05 05:58:46;;;;;;;2.70;0.90;;;13.40;67.10;;;;;;2592498;52;20978;-67
2023/10/05 06:01:14;;;;;;;3.15;1.00;;;13.50;67.20;;;;;;2363865;54;20989;-68
2023/10/05 06:03:44;;;;;;;3.12;1.27;;;13.40;67.20;;;;;;2364368;54;21001;-66
2023/10/05 06:06:11;;;;;;;2.72;1.10;;;13.40;67.20;;;;;;2351638;53;21035;-68
2023/10/05 06:08:40;;;;;;;2.85;1.20;;;13.40;67.30;;;;;;2344425;53;21061;-68
2023/10/05 06:11:09;;;;;;;;;;;13.40;67.30;;;;;;2351193;53;20926;-66
2023/10/05 06:13:36;;;;;;;1.90;0.77;;;13.50;66.60;;;;;;2615043;52;20068;-66
2023/10/05 06:16:05;;;;;;;2.10;0.90;;;13.50;67.40;;;;;;2592577;52;20909;-65
2023/10/05 06:18:32;;;;;;;2.60;1.00;;;13.50;67.50;;;;;;2587743;52;20913;-68
2023/10/05 06:20:58;;;;;;;3.75;1.17;;;13.50;67.50;;;;;;2586362;52;21222;-66
2023/10/05 06:23:26;;;;;;;2.20;0.82;;;13.50;67.40;;;;;;2341636;53;20985;-65
2023/10/05 06:25:53;;;;;;;2.95;1.10;;;13.50;67.40;;;;;;2340791;53;21060;-66
2023/10/05 06:28:19;;;;;;;2.30;1.10;;;13.50;67.40;;;;;;2341150;53;20984;-66
2023/10/05 06:30:52;;;;;;;3.28;0.88;;;13.50;67.50;;;;;;2341317;53;20944;-68
2023/10/05 06:33:19;;;;;;;2.37;1.00;;;13.50;67.50;;;;;;2586961;52;21337;-68
2023/10/05 06:35:46;;;;;;;3.08;1.25;;;13.50;67.60;;;;;;2320960;53;21008;-67
2023/10/05 06:38:12;;;;;;;2.40;0.93;;;13.50;67.70;;;;;;2337742;53;20948;-67
2023/10/05 06:40:39;;;;;;;1.92;0.90;;;13.50;67.70;;;;;;2341273;54;20961;-68
2023/10/05 06:43:06;;;;;;;2.47;1.10;;;13.60;67.90;;;;;;2341888;53;21457;-67
2023/10/05 06:45:35;;;;;;;3.03;1.12;;;13.60;67.90;;;;;;2621276;52;21045;-68
2023/10/05 06:48:04;;;;;;;2.78;1.50;;;13.60;68.00;;;;;;2618725;52;20946;-68
2023/10/05 06:50:31;;;;;;;3.22;1.15;;;13.60;68.10;;;;;;2621257;52;20941;-68
2023/10/05 06:52:58;;;;;;;3.55;1.33;;;13.60;68.20;;;;;;2621297;52;20910;-68
2023/10/05 06:55:25;;;;;;;2.87;1.30;;;13.70;68.40;;;;;;2350059;54;20895;-66
2023/10/05 06:57:52;;;;;;;2.85;1.23;;;13.70;68.50;;;;;;2620974;52;21329;-69
2023/10/05 07:00:22;;;;;;;2.70;1.20;;;13.70;68.60;;;;;;2620853;52;21010;-66
2023/10/05 07:02:51;;;;;;;2.87;1.20;;;13.80;68.70;;;;;;2368357;53;20914;-66
2023/10/05 07:05:17;;;;;;;3.55;1.30;;;13.80;68.90;;;;;;2369372;53;21005;-67
2023/10/05 07:07:45;;;;;;;2.60;1.23;;;13.90;69.00;;;;;;2621472;52;21002;-67
2023/10/05 07:10:14;;;;;;;2.20;0.93;;;13.90;69.00;;;;;;2368730;53;20998;-66
2023/10/05 07:12:46;;;;;;;2.20;1.00;;;14.00;69.10;;;;;;2369376;53;20899;-66
2023/10/05 07:15:19;;;;;;;2.85;1.00;;;14.10;69.20;;;;;;2368994;53;20997;-66
2023/10/05 07:17:47;;;;;;;2.58;1.00;;;14.10;69.20;;;;;;2369093;53;20950;-66
2023/10/05 07:20:19;;;;;;;2.53;0.98;;;14.20;69.40;;;;;;2622004;52;20990;-69
2023/10/05 07:22:46;;;;;;;2.05;0.90;;;14.30;69.50;;;;;;2622507;52;20923;-67
2023/10/05 07:25:12;;;;;;;2.92;1.08;;;14.30;69.60;;;;;;2369737;53;20934;-66
2023/10/05 07:27:39;;;;;;;3.22;1.20;;;14.30;69.60;;;;;;2370054;53;20954;-68
2023/10/05 07:30:06;;;;;;;4.80;1.42;;;14.40;69.80;;;;;;2368501;53;20946;-67
2023/10/05 07:32:35;;;;;;;2.17;0.90;;;14.50;69.90;;;;;;2620682;52;20922;-67
2023/10/05 07:35:07;;;;;;;10.15;1.20;;;14.60;70.00;;;;;;2620386;52;20915;-66
2023/10/05 07:37:36;;;;;;;2.53;1.00;;;14.60;70.00;;;;;;2368618;53;21020;-67
2023/10/05 07:40:09;;;;;;;3.80;1.30;;;14.70;70.10;;;;;;2621341;52;21036;-68
2023/10/05 07:42:37;;;;;;;2.75;1.05;;;14.80;70.10;;;;;;2622226;52;20943;-69
2023/10/05 07:45:07;;;;;;;7.60;1.50;;;14.80;70.10;;;;;;2606801;52;20950;-67
2023/10/05 07:47:40;;;;;;;2.50;1.08;;;14.90;70.20;;;;;;2358484;53;20911;-67
2023/10/05 07:50:10;;;;;;;2.65;0.95;;;15.00;70.10;;;;;;2369195;53;21354;-66
2023/10/05 07:52:43;;;;;;;2.97;0.93;;;15.00;70.00;;;;;;2369326;53;20927;-67
2023/10/05 07:55:09;;;;;;;3.33;1.20;;;15.10;70.10;;;;;;2368350;53;20930;-67
2023/10/05 07:57:36;;;;;;;5.68;1.37;;;15.20;70.20;;;;;;2369373;53;21049;-69
2023/10/05 08:00:04;;;;;;;3.72;1.30;;;15.20;70.10;;;;;;2367470;53;20962;-66
2023/10/05 08:02:30;;;;;;;4.80;1.40;;;15.30;70.20;;;;;;2352100;53;21034;-71
2023/10/05 08:04:57;;;;;;;3.97;1.10;;;15.40;70.30;;;;;;2369126;53;20962;-67
2023/10/05 08:07:23;;;;;;;1.67;0.75;;;15.40;70.20;;;;;;2369222;53;22206;-66
2023/10/05 08:09:50;;;;;;;3.40;1.40;;;15.50;70.20;;;;;;2346824;53;20929;-72
2023/10/05 08:12:16;;;;;;;3.37;1.10;;;15.60;70.20;;;;;;2369224;53;21174;-66
2023/10/05 08:14:45;;;;;;;3.37;1.02;;;15.60;70.20;;;;;;2621895;52;20927;-66
2023/10/05 08:17:12;;;;;;;3.60;1.17;;;15.70;70.10;;;;;;2368681;53;20970;-67
2023/10/05 08:19:38;;;;;;;2.37;1.00;;;15.90;70.30;;;;;;2621946;52;21057;-68
2023/10/05 08:22:05;;;;;;;3.03;1.23;;;15.80;70.10;;;;;;2621633;52;20918;-67
2023/10/05 08:24:31;;;;;;;2.70;1.17;;;15.90;70.20;;;;;;2341520;53;21007;-67
2023/10/05 08:27:03;;;;;;;2.90;1.10;;;16.00;70.30;;;;;;2339955;53;20917;-69
2023/10/05 08:29:32;;;;;;;2.75;1.17;;;16.00;70.20;;;;;;2341482;54;20933;-67
2023/10/05 08:31:58;;;;;;;2.75;1.17;;;16.10;70.30;;;;;;2362420;53;20982;-68
2023/10/05 08:34:25;;;;;;;2.53;1.10;;;16.10;70.30;;;;;;2369170;53;20982;-68
2023/10/05 08:36:54;;;;;;;2.97;1.23;;;16.20;70.30;;;;;;2368760;53;21859;-68
2023/10/05 08:39:26;;;;;;;3.42;1.62;;;16.30;70.50;;;;;;2620746;52;21867;-66
2023/10/05 08:41:57;;;;;;;3.25;1.23;;;16.30;70.50;;;;;;2621442;52;21404;-68
2023/10/05 08:44:26;;;;;;;3.33;1.30;;;16.40;70.50;;;;;;2369144;53;20938;-69
2023/10/05 08:46:55;;;;;;;3.05;1.12;;;16.50;70.60;;;;;;2348613;53;20941;-67
2023/10/05 08:49:27;;;;;;;3.70;1.23;;;16.60;70.60;;;;;;2368322;53;21450;-67
2023/10/05 08:51:56;;;;;;;3.78;1.27;;;16.60;70.40;;;;;;2368907;53;20946;-66
2023/10/05 08:54:33;;;;;;;3.65;1.20;;;16.70;70.40;;;;;;2369262;53;20934;-68
2023/10/05 08:56:59;;;;;;;2.97;1.25;;;16.80;70.30;;;;;;2615350;52;21049;-67
2023/10/05 08:59:26;;;;;;;3.10;1.25;;;16.90;70.30;;;;;;2597677;52;20961;-68
2023/10/05 09:02:07;;;;;;;2.80;1.30;;;16.90;70.20;;;;;;2368767;53;20934;-68
2023/10/05 09:04:43;;;;;;;4.72;1.20;;;17.00;70.00;;;;;;2621978;52;20970;-67
2023/10/05 09:07:27;;;;;;;4.28;1.52;;;17.00;70.30;;;;;;2620331;52;20926;-66
2023/10/05 09:09:56;;;;;;;3.58;1.50;;;17.10;69.80;;;;;;2596951;52;20938;-66
2023/10/05 09:12:34;;;;;;;3.95;1.52;;;17.20;71.00;;;;;;2370141;53;21491;-67
2023/10/05 09:15:27;;;;;;;3.70;1.62;;;17.30;70.30;;;;;;2621711;52;20974;-68
2023/10/05 09:20:59;;;;;;;;;;;17.40;70.20;;;;;;2625712;52;21035;-67
2023/10/05 09:23:30;;;;;;;2.72;1.30;;;17.60;69.40;;;;;;2621328;52;20102;-67
2023/10/05 09:25:57;;;;;;;3.95;1.23;;;17.60;70.20;;;;;;2369473;53;21233;-67
2023/10/05 09:28:45;;;;;;;3.95;1.45;;;17.70;70.40;;;;;;2621310;52;21396;-66
2023/10/05 09:31:13;;;;;;;4.03;1.45;;;17.80;70.10;;;;;;2621344;52;21093;-68
2023/10/05 09:33:47;;;;;;;3.22;1.50;;;17.80;70.20;;;;;;2622019;52;21002;-67
2023/10/05 09:36:22;;;;;;;3.22;1.45;;;17.80;69.80;;;;;;2620949;52;20979;-67
2023/10/05 09:38:48;;;;;;;3.40;1.50;;;18.00;70.10;;;;;;2621217;52;21395;-65
2023/10/05 09:41:17;;;;;;;2.90;1.35;;;18.10;70.10;;;;;;2368497;53;21075;-67
2023/10/05 09:43:51;;;;;;;3.15;1.30;;;18.10;70.00;;;;;;2621655;52;20918;-67
2023/10/05 09:46:20;;;;;;;4.12;1.40;;;18.20;69.70;;;;;;2368746;53;20966;-67
2023/10/05 09:48:49;;;;;;;3.33;1.40;;;18.20;69.60;;;;;;2621712;52;21511;-66
2023/10/05 09:51:15;;;;;;;4.10;1.55;;;18.30;69.40;;;;;;2353258;53;21306;-69
2023/10/05 09:53:43;;;;;;;3.65;1.40;;;18.40;69.30;;;;;;2616590;52;20906;-66
2023/10/05 09:56:12;;;;;;;3.60;1.58;;;18.40;69.10;;;;;;2621540;52;20922;-67
2023/10/05 09:58:41;;;;;;;3.62;1.80;;;18.40;68.90;;;;;;2621189;52;20922;-66
2023/10/05 10:01:20;;;;;;;4.72;2.00;;;18.40;68.70;;;;;;2368677;53;21803;-69
2023/10/05 10:03:49;;;;;;;3.75;1.40;;;18.50;68.70;;;;;;2369638;53;21223;-68
2023/10/05 10:06:18;;;;;;;2.83;1.50;;;18.50;68.60;;;;;;2368948;53;21792;-66
2023/10/05 10:08:56;;;;;;;3.17;1.23;;;18.50;68.50;;;;;;2620628;52;20934;-67
2023/10/05 10:11:27;;;;;;;3.08;1.30;;;18.60;68.60;;;;;;2620981;52;20930;-70
2023/10/05 10:14:01;;;;;;;3.90;1.65;;;18.60;68.70;;;;;;2368505;53;21732;-69
2023/10/05 10:16:28;;;;;;;3.87;1.67;;;18.70;68.60;;;;;;2621657;52;20922;-67
2023/10/05 10:19:08;;;;;;;4.60;1.60;;;18.70;68.70;;;;;;2368189;53;21037;-68
2023/10/05 10:21:46;;;;;;;4.20;1.62;;;18.70;68.20;;;;;;2620812;52;21222;-68
2023/10/05 10:24:19;;;;;;;4.53;1.55;;;18.80;68.40;;;;;;2348790;53;20967;-66
2023/10/05 10:27:07;;;;;;;3.30;1.27;;;18.80;68.20;;;;;;2350824;53;20990;-67
2023/10/05 10:29:46;;;;;;;3.70;1.50;;;18.80;67.80;;;;;;2362658;53;21340;-68
2023/10/05 10:32:19;;;;;;;3.97;1.50;;;18.90;67.50;;;;;;2369131;53;20965;-66
2023/10/05 10:34:52;;;;;;;3.60;1.30;;;18.90;68.00;;;;;;2370065;53;21014;-67
2023/10/05 10:37:36;;;;;;;;;;;18.90;68.40;;;;;;2370513;53;21531;-68
2023/10/05 10:46:12;;;;;;;4.53;1.10;;;19.10;68.50;;;;;;2368907;53;20919;-67
2023/10/05 10:48:53;;;;;;;4.50;1.40;;;19.20;68.40;;;;;;2369237;53;20978;-67
2023/10/05 10:51:21;;;;;;;3.83;1.48;;;19.20;67.40;;;;;;2372258;53;21696;-67
2023/10/05 10:53:50;;;;;;;5.60;1.90;;;19.30;68.10;;;;;;2347176;53;20918;-69
2023/10/05 10:56:42;;;;;;;3.30;1.55;;;19.30;68.10;;;;;;2592598;52;20937;-69
2023/10/05 10:59:26;;;;;;;3.10;1.10;;;19.30;67.90;;;;;;2621215;52;20976;-67
2023/10/05 11:01:53;;;;;;;4.18;1.48;;;19.40;67.80;;;;;;2620026;52;21485;-69
2023/10/05 11:04:29;;;;;;;3.03;1.15;;;19.50;67.70;;;;;;2622024;52;20982;-66
2023/10/05 11:07:10;;;;;;;3.03;1.23;;;19.50;67.40;;;;;;2622068;52;21539;-67
2023/10/05 11:09:47;;;;;;;4.57;1.37;;;19.50;67.20;;;;;;2621007;52;20923;-67
2023/10/05 11:12:16;;;;;;;3.28;1.27;;;19.60;67.00;;;;;;2588740;52;20921;-69
2023/10/05 11:14:42;;;;;;;6.30;1.40;;;19.60;66.80;;;;;;2340888;54;21147;-67
2023/10/05 11:17:30;;;;;;;6.43;1.45;;;19.70;66.90;;;;;;2340818;54;21324;-68
2023/10/05 11:20:15;;;;;;;3.58;1.45;;;19.70;65.30;;;;;;2340576;54;20945;-67
2023/10/05 11:22:42;;;;;;;3.37;1.25;;;19.80;66.70;;;;;;2369230;53;22279;-68
2023/10/05 11:25:15;;;;;;;4.30;1.60;;;19.80;66.50;;;;;;2369173;53;21090;-68
2023/10/05 11:27:55;;;;;;;5.55;1.30;;;19.80;66.30;;;;;;2598638;52;21615;-70
2023/10/05 11:30:25;;;;;;;3.30;1.40;;;19.80;66.30;;;;;;2369464;53;21732;-67
2023/10/05 11:32:55;;;;;;;3.42;1.30;;;19.90;66.40;;;;;;2368954;53;21782;-67
2023/10/05 11:35:28;;;;;;;3.65;1.35;;;19.90;66.40;;;;;;2621433;52;20955;-66
2023/10/05 11:38:03;;;;;;;4.68;1.60;;;20.00;66.30;;;;;;2603757;52;21025;-66
2023/10/05 11:40:35;;;;;;;4.18;1.30;;;20.00;66.50;;;;;;2359989;53;20923;-68
2023/10/05 11:43:04;;;;;;;3.10;1.02;;;20.00;66.40;;;;;;2604245;52;21511;-68
2023/10/05 11:45:37;;;;;;;3.00;1.23;;;20.10;66.60;;;;;;2358856;53;21459;-67
2023/10/05 11:48:13;;;;;;;4.85;1.37;;;20.20;66.80;;;;;;2620936;52;20983;-67
2023/10/05 11:50:51;;;;;;;4.70;1.70;;;20.20;66.60;;;;;;2367602;53;20946;-67
2023/10/05 11:53:24;;;;;;;4.95;1.15;;;20.30;66.20;;;;;;2342338;53;20966;-67
2023/10/05 11:55:50;;;;;;;5.20;1.30;;;20.40;66.70;;;;;;2341112;53;21392;-69
2023/10/05 11:58:18;;;;;;;3.78;1.08;;;20.40;66.30;;;;;;2341034;53;21403;-67
2023/10/05 12:00:45;;;;;;;3.33;1.10;;;20.40;66.00;;;;;;2327540;54;21022;-69
2023/10/05 12:03:14;;;;;;;3.28;1.27;;;20.50;65.90;;;;;;2319503;54;20919;-66
2023/10/05 12:05:41;;;;;;;5.25;1.30;;;20.50;66.00;;;;;;2586782;52;20919;-67
2023/10/05 12:08:12;;;;;;;4.28;1.35;;;20.60;66.00;;;;;;2341339;53;21838;-66
2023/10/05 12:10:39;;;;;;;3.37;1.20;;;20.60;66.00;;;;;;2350138;53;21527;-68
2023/10/05 12:13:05;;;;;;;3.92;1.27;;;20.70;65.90;;;;;;2339773;53;21002;-69
2023/10/05 12:15:33;;;;;;;5.68;1.60;;;20.80;65.70;;;;;;2340343;53;20924;-67
2023/10/05 12:18:00;;;;;;;3.28;1.20;;;20.80;65.40;;;;;;2360192;54;21416;-68
2023/10/05 12:20:27;;;;;;;4.28;1.25;;;20.80;65.50;;;;;;2602878;52;20934;-68
2023/10/05 12:22:53;;;;;;;5.10;1.40;;;20.90;65.80;;;;;;2586243;52;20984;-67
2023/10/05 12:25:24;;;;;;;3.33;1.02;;;20.90;65.80;;;;;;2342150;53;20904;-66
2023/10/05 12:27:51;;;;;;;2.97;1.10;;;21.00;65.90;;;;;;2584711;52;20992;-67
2023/10/05 12:30:18;;;;;;;3.83;1.25;;;21.00;65.60;;;;;;2341392;53;21056;-67
2023/10/05 12:32:45;;;;;;;4.30;1.50;;;21.10;65.30;;;;;;2586665;52;21463;-69
2023/10/05 12:35:13;;;;;;;2.72;1.00;;;21.10;64.90;;;;;;2340965;53;21065;-67
2023/10/05 12:37:41;;;;;;;4.07;1.37;;;21.20;64.70;;;;;;2586602;52;21422;-68
2023/10/05 12:40:33;;;;;;;3.60;1.10;;;21.20;64.60;;;;;;2339591;53;20945;-68
2023/10/05 12:43:00;;;;;;;3.97;0.88;;;21.30;64.70;;;;;;2340433;53;20964;-67
2023/10/05 12:45:40;;;;;;;3.42;1.05;;;21.30;64.60;;;;;;2586305;52;20977;-66
2023/10/05 12:48:07;;;;;;;3.40;1.20;;;21.30;64.40;;;;;;2341327;53;20964;-68
2023/10/05 12:50:33;;;;;;;4.22;1.45;;;21.30;64.40;;;;;;2341268;53;20945;-68
2023/10/05 12:53:00;;;;;;;3.97;1.40;;;21.40;64.50;;;;;;2586173;52;21005;-66
2023/10/05 12:55:29;;;;;;;3.72;1.40;;;21.40;64.40;;;;;;2587159;52;20945;-71
2023/10/05 12:57:55;;;;;;;5.45;1.27;;;21.40;64.40;;;;;;2586308;52;20917;-68
2023/10/05 13:00:27;;;;;;;3.67;1.23;;;21.40;64.30;;;;;;2587966;52;20949;-68
2023/10/05 13:02:54;;;;;;;;;;;21.50;64.20;;;;;;2343466;53;21429;-66
2023/10/05 13:05:21;;;;;;;3.97;1.15;;;21.50;62.80;;;;;;2341299;53;20112;-66
2023/10/05 13:07:53;;;;;;;4.07;1.40;;;21.60;64.60;;;;;;2339830;53;21048;-66
2023/10/05 13:10:26;;;;;;;3.22;1.30;;;21.60;64.40;;;;;;2340664;53;20936;-69
2023/10/05 13:12:53;;;;;;;3.90;1.33;;;21.60;64.20;;;;;;2339885;53;22194;-66
2023/10/05 13:15:19;;;;;;;5.10;1.35;;;21.60;63.80;;;;;;2340762;54;21474;-67
2023/10/05 13:17:47;;;;;;;4.30;1.50;;;21.60;63.50;;;;;;2585951;52;20997;-66
2023/10/05 13:20:23;;;;;;;6.78;1.65;;;21.60;63.30;;;;;;2339695;53;21035;-68
2023/10/05 13:22:53;;;;;;;4.93;1.73;;;21.60;63.20;;;;;;2369411;54;21062;-66
2023/10/05 13:25:25;;;;;;;4.25;1.40;;;21.60;63.00;;;;;;2592883;52;20918;-66
2023/10/05 13:27:53;;;;;;;4.65;1.25;;;21.60;62.90;;;;;;2620485;52;20942;-69
2023/10/05 13:30:27;;;;;;;4.75;1.27;;;21.60;62.90;;;;;;2341178;53;20917;-66
2023/10/05 13:33:07;;;;;;;5.75;1.83;;;21.50;62.80;;;;;;2344837;54;20978;-66
2023/10/05 13:35:35;;;;;;;3.87;1.50;;;21.50;62.60;;;;;;2586480;52;20912;-68